createdAt,value
2023-03-13T00:01:00.044Z,54.85
2023-03-13T00:03:28.565Z,55.26
2023-03-13T00:05:57.168Z,55.40
2023-03-13T00:08:25.620Z,54.34
2023-03-13T00:10:52.620Z,54.67
2023-03-13T00:13:19.402Z,55.02
2023-03-13T00:15:46.278Z,55.33
2023-03-13T00:18:13.083Z,55.68
2023-03-13T00:20:39.875Z,56.46
2023-03-13T00:23:06.644Z,57.14
2023-03-13T00:25:33.674Z,57.10
2023-03-13T00:28:00.462Z,57.05
2023-03-13T00:30:27.288Z,57.48
2023-03-13T00:32:54.137Z,55.91
2023-03-13T00:35:20.965Z,57.53
2023-03-13T00:37:47.846Z,56.60
2023-03-13T00:40:14.929Z,55.46
2023-03-13T00:42:41.656Z,55.67
2023-03-13T00:45:08.877Z,55.71
2023-03-13T00:47:35.620Z,56.58
2023-03-13T00:50:02.395Z,56.36
2023-03-13T00:52:29.248Z,56.34
2023-03-13T00:54:56.012Z,55.91
2023-03-13T00:57:22.808Z,56.35
2023-03-13T00:59:49.585Z,56.32
2023-03-13T01:02:16.443Z,55.99
2023-03-13T01:04:43.344Z,55.80
2023-03-13T01:07:10.059Z,56.04
2023-03-13T01:09:36.751Z,55.90
2023-03-13T01:12:03.674Z,55.31
2023-03-13T01:14:31.289Z,55.62
2023-03-13T01:16:58.168Z,55.53
2023-03-13T01:19:24.991Z,56.03
2023-03-13T01:21:51.809Z,55.56
2023-03-13T01:24:20.255Z,55.81
2023-03-13T01:26:47.835Z,55.94
2023-03-13T01:29:15.859Z,55.90
2023-03-13T01:31:42.808Z,56.54
2023-03-13T01:34:10.957Z,56.10
2023-03-13T01:36:38.135Z,56.96
2023-03-13T01:39:05.842Z,57.37
2023-03-13T01:41:32.861Z,57.80
2023-03-13T01:44:00.163Z,57.76
2023-03-13T01:46:32.784Z,57.49
2023-03-13T01:49:25.278Z,58.04
2023-03-13T01:52:10.703Z,57.66
2023-03-13T01:54:56.969Z,57.17
2023-03-13T01:57:42.779Z,57.51
2023-03-13T02:00:16.403Z,57.94
2023-03-13T02:02:49.017Z,58.64
2023-03-13T02:05:19.312Z,59.10
2023-03-13T02:07:57.357Z,58.35
2023-03-13T02:10:26.691Z,59.46
2023-03-13T02:12:57.712Z,60.34
2023-03-13T02:15:27.202Z,59.46
2023-03-13T02:17:55.025Z,58.91
2023-03-13T02:20:22.900Z,58.94
2023-03-13T02:23:02.795Z,59.15
2023-03-13T02:25:52.140Z,59.33
2023-03-13T02:28:33.906Z,59.09
2023-03-13T02:31:03.569Z,58.34
2023-03-13T02:33:34.551Z,58.75
2023-03-13T02:36:03.405Z,58.29
2023-03-13T02:38:33.415Z,58.79
2023-03-13T02:41:02.509Z,59.05
2023-03-13T02:43:35.207Z,59.18
2023-03-13T02:46:15.185Z,58.22
2023-03-13T02:48:51.231Z,59.21
2023-03-13T02:51:25.244Z,59.61
2023-03-13T02:53:55.766Z,59.20
2023-03-13T02:56:25.779Z,59.41
2023-03-13T02:58:53.595Z,59.22
2023-03-13T03:01:23.797Z,59.66
2023-03-13T03:03:51.906Z,58.71
2023-03-13T03:06:18.738Z,59.54
2023-03-13T03:08:46.612Z,59.68
2023-03-13T03:11:14.030Z,59.94
2023-03-13T03:13:42.754Z,58.88
2023-03-13T03:16:12.226Z,59.26
2023-03-13T03:18:39.358Z,59.56
2023-03-13T03:21:06.811Z,58.58
2023-03-13T03:23:38.104Z,59.07
2023-03-13T03:26:06.728Z,58.58
2023-03-13T03:28:34.187Z,59.37
2023-03-13T03:31:08.343Z,59.98
2023-03-13T03:33:37.558Z,60.17
2023-03-13T03:36:10.720Z,59.49
2023-03-13T03:38:39.774Z,60.56
2023-03-13T03:41:08.753Z,61.44
2023-03-13T03:43:36.012Z,62.28
2023-03-13T03:46:04.818Z,62.27
2023-03-13T03:48:32.069Z,63.31
2023-03-13T03:50:59.398Z,64.33
2023-03-13T03:53:28.198Z,64.40
2023-03-13T03:55:55.623Z,64.47
2023-03-13T03:58:22.442Z,64.13
2023-03-13T04:01:12.156Z,65.15
2023-03-13T04:03:39.268Z,64.46
2023-03-13T04:06:07.193Z,64.45
2023-03-13T04:08:34.072Z,65.51
2023-03-13T04:11:02.034Z,65.04
2023-03-13T04:13:32.106Z,65.85
2023-03-13T04:15:59.379Z,66.58
2023-03-13T04:18:26.206Z,65.37
2023-03-13T04:21:04.693Z,65.49
2023-03-13T04:23:37.878Z,65.16
2023-03-13T04:26:04.896Z,66.09
2023-03-13T04:28:31.872Z,65.89
2023-03-13T04:30:59.235Z,65.25
2023-03-13T04:33:40.981Z,66.29
2023-03-13T04:36:24.752Z,65.14
2023-03-13T04:39:10.834Z,64.48
2023-03-13T04:42:13.195Z,66.10
2023-03-13T04:44:57.988Z,65.91
2023-03-13T04:47:43.785Z,67.53
2023-03-13T04:50:37.048Z,68.15
2023-03-13T04:53:13.399Z,67.74
2023-03-13T04:55:51.317Z,68.42
2023-03-13T04:58:47.557Z,68.66
2023-03-13T05:01:40.838Z,66.98
2023-03-13T05:04:31.302Z,67.23
2023-03-13T05:07:15.944Z,67.73
2023-03-13T05:09:58.126Z,67.68
2023-03-13T05:12:43.525Z,67.43
2023-03-13T05:15:20.501Z,67.54
2023-03-13T05:18:12.984Z,68.27
2023-03-13T05:20:59.989Z,68.35
2023-03-13T05:23:35.359Z,67.88
2023-03-13T05:26:25.355Z,68.70
2023-03-13T05:29:18.049Z,68.52
2023-03-13T05:32:03.070Z,69.26
2023-03-13T05:34:43.833Z,69.62
2023-03-13T05:37:43.147Z,69.12
2023-03-13T05:40:30.070Z,69.37
2023-03-13T05:43:15.518Z,65.18
2023-03-13T05:46:08.622Z,65.58
2023-03-13T05:49:08.207Z,64.64
2023-03-13T05:52:04.110Z,65.22
2023-03-13T05:54:42.928Z,63.63
2023-03-13T05:57:24.562Z,65.42
2023-03-13T06:00:23.771Z,66.02
2023-03-13T06:03:22.671Z,67.56
2023-03-13T06:05:58.899Z,66.75
2023-03-13T06:08:43.576Z,67.19
2023-03-13T06:11:10.424Z,67.70
2023-03-13T06:13:37.684Z,68.08
2023-03-13T06:16:14.061Z,69.12
2023-03-13T06:18:45.516Z,68.79
2023-03-13T06:21:12.304Z,68.75
2023-03-13T06:23:39.175Z,68.17
2023-03-13T06:26:06.212Z,67.81
2023-03-13T06:28:32.985Z,67.03
2023-03-13T06:31:04.762Z,66.98
2023-03-13T06:33:32.262Z,65.63
2023-03-13T06:36:01.294Z,65.53
2023-03-13T06:38:30.130Z,60.00
2023-03-13T06:40:57.075Z,57.50
2023-03-13T06:43:23.976Z,54.82
2023-03-13T06:45:50.870Z,54.56
2023-03-13T06:48:18.251Z,54.44
2023-03-13T06:50:45.364Z,53.67
2023-03-13T06:53:17.805Z,53.85
2023-03-13T06:55:45.469Z,52.95
2023-03-13T06:58:25.366Z,52.77
2023-03-13T07:00:59.288Z,51.97
2023-03-13T07:03:26.280Z,50.65
2023-03-13T07:05:57.719Z,52.06
2023-03-13T07:08:25.734Z,52.38
2023-03-13T07:10:53.199Z,52.05
2023-03-13T07:13:21.862Z,52.02
2023-03-13T07:15:48.884Z,52.67
2023-03-13T07:18:16.225Z,51.71
2023-03-13T07:20:43.378Z,52.08
2023-03-13T07:23:10.246Z,51.16
2023-03-13T07:25:36.993Z,51.23
2023-03-13T07:28:03.790Z,51.03
2023-03-13T07:30:30.866Z,51.54
2023-03-13T07:32:58.867Z,50.95
2023-03-13T07:35:25.754Z,51.44
2023-03-13T07:37:52.662Z,50.28
2023-03-13T07:40:19.498Z,51.15
2023-03-13T07:42:46.452Z,50.75
2023-03-13T07:45:13.494Z,51.31
2023-03-13T07:47:40.229Z,51.30
2023-03-13T07:50:08.293Z,51.89
2023-03-13T07:52:35.158Z,52.45
2023-03-13T07:55:01.866Z,52.30
2023-03-13T07:57:28.872Z,52.38
2023-03-13T07:59:55.657Z,51.34
2023-03-13T08:02:22.516Z,51.35
2023-03-13T08:04:52.513Z,52.65
2023-03-13T08:07:19.269Z,51.98
2023-03-13T08:09:46.222Z,50.34
2023-03-13T08:12:13.017Z,49.53
2023-03-13T08:14:39.747Z,49.40
2023-03-13T08:17:06.607Z,49.64
2023-03-13T08:19:33.313Z,49.27
2023-03-13T08:22:00.014Z,49.11
2023-03-13T08:24:26.873Z,48.09
2023-03-13T08:26:56.444Z,47.04
2023-03-13T08:29:23.863Z,46.49
2023-03-13T08:31:52.707Z,45.21
2023-03-13T08:34:19.993Z,44.65
2023-03-13T08:36:47.499Z,43.52
2023-03-13T08:39:17.064Z,43.33
2023-03-13T08:41:44.479Z,43.57
2023-03-13T08:44:14.250Z,42.96
2023-03-13T08:46:41.214Z,42.76
2023-03-13T08:49:08.618Z,43.00
2023-03-13T08:51:36.474Z,42.87
2023-03-13T08:54:04.145Z,43.46
2023-03-13T08:56:31.883Z,42.81
2023-03-13T08:59:00.748Z,40.80
2023-03-13T09:01:33.201Z,41.90
2023-03-13T09:04:03.983Z,41.41
2023-03-13T09:06:33.481Z,41.81
2023-03-13T09:09:00.244Z,41.09
2023-03-13T09:11:27.392Z,40.95
2023-03-13T09:13:55.649Z,41.66
2023-03-13T09:16:24.242Z,40.79
2023-03-13T09:18:52.711Z,41.25
2023-03-13T09:21:25.524Z,41.36
2023-03-13T09:23:52.542Z,41.29
2023-03-13T09:26:22.748Z,40.52
2023-03-13T09:28:51.448Z,40.81
2023-03-13T09:31:21.242Z,40.44
2023-03-13T09:33:49.712Z,40.51
2023-03-13T09:36:19.288Z,40.24
2023-03-13T09:38:48.101Z,39.84
2023-03-13T09:41:17.613Z,40.41
2023-03-13T09:43:44.402Z,41.00
2023-03-13T09:46:39.165Z,39.57
2023-03-13T09:49:28.436Z,39.20
2023-03-13T09:52:05.918Z,38.43
2023-03-13T09:54:38.659Z,38.74
2023-03-13T09:57:17.203Z,39.81
2023-03-13T09:59:52.671Z,39.70
2023-03-13T10:02:30.692Z,39.88
2023-03-13T10:05:22.800Z,39.27
2023-03-13T10:07:50.715Z,39.92
2023-03-13T10:10:28.526Z,39.83
2023-03-13T10:13:04.170Z,39.72
2023-03-13T10:15:39.517Z,40.24
2023-03-13T10:18:15.819Z,40.31
2023-03-13T10:20:43.626Z,41.48
2023-03-13T10:23:34.704Z,39.46
2023-03-13T10:26:01.498Z,40.80
2023-03-13T10:28:28.507Z,39.44
2023-03-13T10:31:08.425Z,40.00
2023-03-13T10:33:37.122Z,39.41
2023-03-13T10:36:10.810Z,41.10
2023-03-13T10:38:53.295Z,41.05
2023-03-13T10:41:30.989Z,40.67
2023-03-13T10:44:04.515Z,39.47
2023-03-13T10:46:34.152Z,39.77
2023-03-13T10:49:04.229Z,39.61
2023-03-13T10:51:37.614Z,38.99
2023-03-13T10:54:24.142Z,38.83
2023-03-13T10:56:55.930Z,39.78
2023-03-13T10:59:27.463Z,38.96
2023-03-13T11:02:00.600Z,38.79
2023-03-13T11:04:32.499Z,39.31
2023-03-13T11:07:31.383Z,38.76
2023-03-13T11:10:18.435Z,37.71
2023-03-13T11:12:53.445Z,38.39
2023-03-13T11:15:29.616Z,38.92
2023-03-13T11:18:06.638Z,39.44
2023-03-13T11:20:36.510Z,38.43
2023-03-13T11:23:16.168Z,37.87
2023-03-13T11:26:35.714Z,37.05
2023-03-13T11:29:54.111Z,36.85
2023-03-13T11:32:31.257Z,37.24
2023-03-13T11:35:03.245Z,37.03
2023-03-13T11:37:33.430Z,37.00
2023-03-13T11:40:22.675Z,37.19
2023-03-13T11:43:17.766Z,36.77
2023-03-13T11:46:07.898Z,36.91
2023-03-13T11:48:46.887Z,37.47
2023-03-13T11:51:29.187Z,37.85
2023-03-13T11:54:17.766Z,39.16
2023-03-13T11:56:52.635Z,37.82
2023-03-13T11:59:19.364Z,38.08
2023-03-13T12:01:59.429Z,37.39
2023-03-13T12:04:39.989Z,36.09
2023-03-13T12:07:10.099Z,35.19
2023-03-13T12:09:46.105Z,35.76
2023-03-13T12:12:42.058Z,37.03
2023-03-13T12:15:22.090Z,38.04
2023-03-13T12:18:03.449Z,38.38
2023-03-13T12:20:41.353Z,39.30
2023-03-13T12:23:19.044Z,38.80
2023-03-13T12:26:00.452Z,39.04
2023-03-13T12:28:37.411Z,39.64
2023-03-13T12:31:25.605Z,39.21
2023-03-13T12:34:01.045Z,38.93
2023-03-13T12:36:37.238Z,39.37
2023-03-13T12:39:16.085Z,39.44
2023-03-13T12:41:47.391Z,39.22
2023-03-13T12:44:20.043Z,39.87
2023-03-13T12:46:54.369Z,39.59
2023-03-13T12:49:21.675Z,39.00
2023-03-13T12:52:18.752Z,40.17
2023-03-13T12:55:18.263Z,40.24
2023-03-13T12:58:15.045Z,40.86
2023-03-13T13:00:45.951Z,39.86
2023-03-13T13:03:22.331Z,40.13
2023-03-13T13:06:18.860Z,40.06
2023-03-13T13:09:06.657Z,40.51
2023-03-13T13:11:33.780Z,41.09
2023-03-13T13:14:16.018Z,41.21
2023-03-13T13:16:58.236Z,40.71
2023-03-13T13:19:25.096Z,40.65
2023-03-13T13:22:29.323Z,40.42
2023-03-13T13:25:00.994Z,40.51
2023-03-13T13:27:34.565Z,41.06
2023-03-13T13:30:21.307Z,40.55
2023-03-13T13:32:56.105Z,40.67
2023-03-13T13:35:34.832Z,40.31
2023-03-13T13:38:28.490Z,40.59
2023-03-13T13:41:26.425Z,41.53
2023-03-13T13:44:21.024Z,41.14
2023-03-13T13:46:47.941Z,41.29
2023-03-13T13:49:19.855Z,41.66
2023-03-13T13:52:01.767Z,42.26
2023-03-13T13:54:45.701Z,42.31
2023-03-13T13:57:18.014Z,41.84
2023-03-13T13:59:51.432Z,41.00
2023-03-13T14:02:30.707Z,41.26
2023-03-13T14:05:20.957Z,41.30
2023-03-13T14:07:57.276Z,41.34
2023-03-13T14:10:48.496Z,41.37
2023-03-13T14:13:20.729Z,40.85
2023-03-13T14:15:49.734Z,40.93
2023-03-13T14:18:16.499Z,41.23
2023-03-13T14:21:14.037Z,41.30
2023-03-13T14:23:46.045Z,41.18
2023-03-13T14:26:22.585Z,40.63
2023-03-13T14:28:56.669Z,40.84
2023-03-13T14:31:32.914Z,40.27
2023-03-13T14:34:06.015Z,40.00
2023-03-13T14:37:17.228Z,41.05
2023-03-13T14:39:46.009Z,41.74
2023-03-13T14:42:17.241Z,42.15
2023-03-13T14:44:47.364Z,41.63
2023-03-13T14:47:34.529Z,41.56
2023-03-13T14:50:05.099Z,42.27
2023-03-13T14:52:33.087Z,41.55
2023-03-13T14:55:07.860Z,42.38
2023-03-13T14:57:35.855Z,42.15
2023-03-13T15:00:30.845Z,42.53
2023-03-13T15:03:13.099Z,42.47
2023-03-13T15:05:39.893Z,42.43
2023-03-13T15:08:18.405Z,42.18
2023-03-13T15:10:46.114Z,43.07
2023-03-13T15:13:34.173Z,43.11
2023-03-13T15:16:02.905Z,43.71
2023-03-13T15:18:34.855Z,44.49
2023-03-13T15:21:24.157Z,44.11
2023-03-13T15:24:15.332Z,44.51
2023-03-13T15:26:42.153Z,45.10
2023-03-13T15:29:10.798Z,45.66
2023-03-13T15:31:38.268Z,44.64
2023-03-13T15:34:10.860Z,44.92
2023-03-13T15:36:40.729Z,45.08
2023-03-13T15:39:15.075Z,45.35
2023-03-13T15:41:42.423Z,45.58
2023-03-13T15:44:09.199Z,45.88
2023-03-13T15:46:36.173Z,46.12
2023-03-13T15:49:03.664Z,45.87
2023-03-13T15:51:30.877Z,46.01
2023-03-13T15:53:57.654Z,45.95
2023-03-13T15:56:24.542Z,45.78
2023-03-13T15:58:51.848Z,46.29
2023-03-13T16:01:19.348Z,46.04
2023-03-13T16:03:46.287Z,46.05
2023-03-13T16:06:15.549Z,45.67
2023-03-13T16:08:42.723Z,46.24
2023-03-13T16:11:12.353Z,46.39
2023-03-13T16:13:39.102Z,46.26
2023-03-13T16:16:18.609Z,46.11
2023-03-13T16:18:45.436Z,46.59
2023-03-13T16:21:24.798Z,46.85
2023-03-13T16:23:52.243Z,47.21
2023-03-13T16:26:24.927Z,46.99
2023-03-13T16:28:52.985Z,47.27
2023-03-13T16:31:25.474Z,47.56
2023-03-13T16:33:54.189Z,47.55
2023-03-13T16:36:28.200Z,47.87
2023-03-13T16:38:55.159Z,47.57
2023-03-13T16:41:24.180Z,47.77
2023-03-13T16:43:51.047Z,48.03
2023-03-13T16:46:24.032Z,48.04
2023-03-13T16:48:51.576Z,48.82
2023-03-13T16:51:26.780Z,49.20
2023-03-13T16:53:55.999Z,49.21
2023-03-13T16:56:22.655Z,49.06
2023-03-13T16:58:49.474Z,49.18
2023-03-13T17:01:16.909Z,49.06
2023-03-13T17:03:44.630Z,48.61
2023-03-13T17:06:17.917Z,48.53
2023-03-13T17:08:44.872Z,48.49
2023-03-13T17:11:17.273Z,49.07
2023-03-13T17:13:47.413Z,49.26
2023-03-13T17:16:18.768Z,48.54
2023-03-13T17:18:48.752Z,48.70
2023-03-13T17:21:23.813Z,48.77
2023-03-13T17:23:51.303Z,48.42
2023-03-13T17:26:21.415Z,48.44
2023-03-13T17:28:50.549Z,47.94
2023-03-13T17:31:18.549Z,48.13
2023-03-13T17:33:45.971Z,47.94
2023-03-13T17:36:17.065Z,48.15
2023-03-13T17:38:44.512Z,47.99
2023-03-13T17:41:14.173Z,47.67
2023-03-13T17:43:41.939Z,47.93
2023-03-13T17:46:15.944Z,47.52
2023-03-13T17:48:42.783Z,47.79
2023-03-13T17:51:19.579Z,47.70
2023-03-13T17:53:46.764Z,47.79
2023-03-13T17:56:15.912Z,47.48
2023-03-13T17:58:42.775Z,47.66
2023-03-13T18:01:11.992Z,46.90
2023-03-13T18:03:39.321Z,46.86
2023-03-13T18:06:06.389Z,47.14
2023-03-13T18:08:33.150Z,47.20
2023-03-13T18:10:59.848Z,46.94
2023-03-13T18:13:26.581Z,46.63
2023-03-13T18:15:53.401Z,47.32
2023-03-13T18:18:20.129Z,46.48
2023-03-13T18:20:47.409Z,46.96
2023-03-13T18:23:14.166Z,46.56
2023-03-13T18:25:40.917Z,46.67
2023-03-13T18:28:11.492Z,46.88
2023-03-13T18:30:39.677Z,46.74
2023-03-13T18:33:06.482Z,46.77
2023-03-13T18:35:33.436Z,46.73
2023-03-13T18:38:00.244Z,46.88
2023-03-13T18:40:28.886Z,47.00
2023-03-13T18:42:55.760Z,47.41
2023-03-13T18:45:26.905Z,47.04
2023-03-13T18:47:53.998Z,47.12
2023-03-13T18:50:30.749Z,47.40
2023-03-13T18:52:59.386Z,47.61
2023-03-13T18:55:29.990Z,47.94
2023-03-13T18:57:57.532Z,48.67
2023-03-13T19:00:29.937Z,48.38
2023-03-13T19:02:57.390Z,48.87
2023-03-13T19:05:24.510Z,49.23
2023-03-13T19:07:51.441Z,49.11
2023-03-13T19:10:27.956Z,49.20
2023-03-13T19:12:56.054Z,49.82
2023-03-13T19:15:25.958Z,50.43
2023-03-13T19:17:54.069Z,50.52
2023-03-13T19:20:22.826Z,50.60
2023-03-13T19:22:49.822Z,50.77
2023-03-13T19:25:17.476Z,51.36
2023-03-13T19:27:45.486Z,51.20
2023-03-13T19:30:20.700Z,51.05
2023-03-13T19:32:47.685Z,51.50
2023-03-13T19:35:18.618Z,50.79
2023-03-13T19:37:46.107Z,50.99
2023-03-13T19:40:23.967Z,51.44
2023-03-13T19:42:50.809Z,51.54
2023-03-13T19:45:19.708Z,51.48
2023-03-13T19:47:46.551Z,51.25
2023-03-13T19:50:20.041Z,51.88
2023-03-13T19:52:46.882Z,51.76
2023-03-13T19:55:14.173Z,52.08
2023-03-13T19:57:41.176Z,51.70
2023-03-13T20:00:14.070Z,52.02
2023-03-13T20:02:41.696Z,51.94
2023-03-13T20:05:10.245Z,51.87
2023-03-13T20:07:37.455Z,51.76
2023-03-13T20:10:05.457Z,52.47
2023-03-13T20:12:34.073Z,51.82
2023-03-13T20:15:00.865Z,51.85
2023-03-13T20:17:27.965Z,51.80
2023-03-13T20:19:54.815Z,52.07
2023-03-13T20:22:21.489Z,51.68
2023-03-13T20:24:48.276Z,51.64
2023-03-13T20:27:15.032Z,51.62
2023-03-13T20:29:41.977Z,51.67
2023-03-13T20:32:08.821Z,52.22
2023-03-13T20:34:35.850Z,51.96
2023-03-13T20:37:03.904Z,51.81
2023-03-13T20:39:30.964Z,51.89
2023-03-13T20:42:02.239Z,52.35
2023-03-13T20:44:29.751Z,52.26
2023-03-13T20:46:56.470Z,52.83
2023-03-13T20:49:23.247Z,52.51
2023-03-13T20:51:49.953Z,52.61
2023-03-13T20:54:16.709Z,52.61
2023-03-13T20:56:43.555Z,52.84
2023-03-13T20:59:10.283Z,53.21
2023-03-13T21:01:37.129Z,53.25
2023-03-13T21:04:04.274Z,53.04
2023-03-13T21:06:31.136Z,53.49
2023-03-13T21:08:58.128Z,53.33
2023-03-13T21:11:24.864Z,52.80
2023-03-13T21:13:51.658Z,53.20
2023-03-13T21:16:19.945Z,53.14
2023-03-13T21:18:46.999Z,53.27
2023-03-13T21:21:17.457Z,53.43
2023-03-13T21:23:45.906Z,53.60
2023-03-13T21:26:13.709Z,53.85
2023-03-13T21:28:40.821Z,53.76
2023-03-13T21:31:12.931Z,54.37
2023-03-13T21:33:41.272Z,54.00
2023-03-13T21:36:09.977Z,54.42
2023-03-13T21:38:36.844Z,54.32
2023-03-13T21:41:10.670Z,53.74
2023-03-13T21:43:38.693Z,53.57
2023-03-13T21:46:05.677Z,53.51
2023-03-13T21:48:32.451Z,53.54
2023-03-13T21:50:59.341Z,53.69
2023-03-13T21:53:26.260Z,53.79
2023-03-13T21:55:53.094Z,53.70
2023-03-13T21:58:19.839Z,53.69
2023-03-13T22:00:46.574Z,54.07
2023-03-13T22:03:13.600Z,53.97
2023-03-13T22:05:42.454Z,53.85
2023-03-13T22:08:09.911Z,53.86
2023-03-13T22:10:38.093Z,53.99
2023-03-13T22:13:06.938Z,54.03
2023-03-13T22:15:34.166Z,53.57
2023-03-13T22:18:00.923Z,53.72
2023-03-13T22:20:28.021Z,53.57
2023-03-13T22:22:54.905Z,53.34
2023-03-13T22:25:21.759Z,53.27
2023-03-13T22:27:48.537Z,53.49
2023-03-13T22:30:15.553Z,53.76
2023-03-13T22:32:42.398Z,53.45
2023-03-13T22:35:09.907Z,53.96
2023-03-13T22:37:36.624Z,53.85
2023-03-13T22:40:04.082Z,54.30
2023-03-13T22:42:30.836Z,54.53
2023-03-13T22:44:57.652Z,54.45
2023-03-13T22:47:25.923Z,54.46
2023-03-13T22:49:53.687Z,54.21
2023-03-13T22:52:22.183Z,54.06
2023-03-13T22:54:48.918Z,54.59
2023-03-13T22:57:15.620Z,54.45
2023-03-13T22:59:42.348Z,53.87
2023-03-13T23:02:09.235Z,54.32
2023-03-13T23:04:36.008Z,54.36
2023-03-13T23:07:02.747Z,54.38
2023-03-13T23:09:29.496Z,54.27
2023-03-13T23:11:56.218Z,54.02
2023-03-13T23:14:23.011Z,54.06
2023-03-13T23:16:49.993Z,54.02
2023-03-13T23:19:16.976Z,53.82
2023-03-13T23:21:43.769Z,53.88
2023-03-13T23:24:10.514Z,53.92
2023-03-13T23:26:37.339Z,53.99
2023-03-13T23:29:04.650Z,54.17
2023-03-13T23:31:32.045Z,54.57
2023-03-13T23:33:59.238Z,54.89
2023-03-13T23:36:26.813Z,54.65
2023-03-13T23:38:54.374Z,54.94
2023-03-13T23:41:21.797Z,55.09
2023-03-13T23:43:48.810Z,54.94
2023-03-13T23:46:25.449Z,54.46
2023-03-13T23:48:53.939Z,54.50
2023-03-13T23:51:20.650Z,54.26
2023-03-13T23:53:47.767Z,54.50
2023-03-13T23:56:14.748Z,54.30
2023-03-13T23:58:42.136Z,54.18
